• Join FlightAware (Why Join?)
  • Login
  • US Flag 
11:54AM EDT


 

Airport Tracker/Info


-or-


 

Live Flight TrackerFlight Track Log ✈ UAL1002 ✈ 09-Oct-2013 ✈ KBDL - KORD

Flight Track Log - Related Links

Times and Time Zones

All times are in EDT time to prevent confusion due to time zone crossing. See the UAL1002 flight status page for this flight to view local times or setup timezone preferences in your user account.

Time Position Orientation Groundspeed Altitude Reporting Facility
EDT Latitude Longitude Course Direction KTS MPH feet Rate Location/Type
05:27PM 41.9519 -72.6689 North 155 178 1,000  Level Boston Center
05:27PM 41.9667 -72.6467 48° Northeast 181 208 1,800 2,160 Climbing Boston Center
05:28PM 42.0022 -72.5881 51° Northeast 209 241 4,200 3,120 Climbing Boston Center
05:29PM 42.0708 -72.6442 329° Northwest 214 246 8,100 3,300 Climbing Boston Center
05:30PM 41.9652 -73.0697 324° Northwest  Level Estimated
05:30PM 42.1311 -72.7256 315° West 246 283 10,700  Level Boston Center
05:31PM 41.9737 -73.1985 340° North  Level Estimated
05:31PM 42.1914 -72.8100 314° West 313 360 12,900  Level Boston Center
05:32PM 42.0691 -73.1832 North  Level FlightAware Approximate
05:32PM 42.2764 -72.9256 315° West 378 435 15,600  Level Boston Center
05:33PM 42.3739 -72.9994 331° Northwest 396 456 17,600 2,040 Climbing Boston Center
05:34PM 42.4864 -73.0511 341° North 401 461 19,800 2,280 Climbing Boston Center
05:35PM 42.5964 -73.1169 336° Northwest 418 481 22,100 1,860 Climbing Boston Center
05:36PM 42.7106 -73.1889 335° Northwest 440 506 23,600 1,800 Climbing Boston Center
05:37PM 42.8164 -73.2467 338° Northwest 440 506 25,800 1,740 Climbing Boston Center
05:38PM 42.9347 -73.3136 338° Northwest 450 518 27,200 1,560 Climbing Boston Center
05:39PM 43.0064 -73.4708 302° West 423 487 29,000 1,380 Climbing Boston Center
05:40PM 43.0172 -73.6414 275° West 418 481 30,000 480 Climbing Boston Center
05:41PM 43.0256 -73.8147 274° West 436 502 30,000  Level Boston Center
05:42PM 43.0381 -73.9825 276° West 446 513 30,000 -60 Level Boston Center
05:43PM 43.0503 -74.1506 276° West 446 513 29,900  Descending Boston Center
05:44PM 43.0558 -74.3211 273° West 446 513 30,000  Climbing Boston Center
05:45PM 43.0675 -74.4919 275° West 446 513 30,000 -60 Level Boston Center
05:46PM 43.0789 -74.6631 275° West 451 519 29,900 -60 Descending Boston Center
05:47PM 43.0881 -74.8339 274° West 457 526 29,900  Level Boston Center
05:48PM 43.0989 -75.0078 275° West 457 526 29,900  Level Boston Center
05:49PM 43.1075 -75.1789 274° West 462 532 30,000  Climbing Boston Center
05:50PM 43.1175 -75.3558 274° West 462 532 30,000  Level Boston Center
05:51PM 43.1264 -75.4983 275° West 462 532 30,000  Level Boston Center
05:52PM 43.1356 -75.6897 274° West 462 532 30,000  Level Boston Center
05:53PM 43.1453 -75.8636 274° West 462 532 30,000  Level Boston Center
05:54PM 43.1544 -76.0381 274° West 462 532 30,000 1,140 Level Boston Center
05:57PM 43.1500 -76.4500 269° West 440 506 34,000 1,620 Climbing Toronto Center
05:58PM 43.1500 -76.6167 270° West 420 483 35,700 960 Climbing Toronto Center
05:59PM 43.1500 -76.7833 270° West 410 472 36,000 120 Climbing Toronto Center
06:00PM 43.1500 -76.9167 270° West 410 472 36,000  Level Toronto Center
06:01PM 43.1500 -77.1000 270° West 420 483 36,000  Level Toronto Center
06:02PM 43.1333 -77.2333 260° West 420 483 36,000  Level Toronto Center
06:03PM 43.1500 -77.4167 277° West 420 483 36,000  Level Toronto Center
06:04PM 43.1500 -77.5500 270° West 410 472 36,000  Level Toronto Center
06:05PM 43.1500 -77.7661 270° West 403 464 36,000  Level Cleveland Center
06:06PM 43.1486 -77.9178 269° West 402 463 36,000  Level Cleveland Center
06:07PM 43.1458 -78.0997 269° West 402 463 36,000  Level Cleveland Center
06:08PM 43.1436 -78.2519 269° West 403 464 36,000  Level Cleveland Center
06:09PM 43.1406 -78.4050 268° West 404 465 36,000  Level Cleveland Center
06:10PM 43.1353 -78.5594 267° West 412 474 36,000  Level Cleveland Center
06:11PM 43.1311 -78.7108 268° West 401 461 36,000  Level Cleveland Center
06:12PM 43.1269 -78.8631 268° West 401 461 36,000  Level Cleveland Center
06:13PM 43.1225 -79.0442 268° West 400 460 36,000  Level Cleveland Center
06:14PM 43.1169 -79.1942 267° West 398 458 36,000  Level Cleveland Center
06:16PM 43.1125 -79.3442 268° West 396 456 36,000  Level Cleveland Center
06:17PM 43.1075 -79.4956 267° West 398 458 36,000  Level Cleveland Center
06:18PM 43.1011 -79.6478 267° West 402 463 36,000  Level Cleveland Center
06:19PM 43.0931 -79.8308 267° West 404 465 36,000  Level Cleveland Center
06:20PM 43.1075 -79.9833 277° West 445 512 36,000  Level Cleveland Center
06:21PM 43.1856 -80.1144 309° West 447 514 36,000  Level Cleveland Center
06:22PM 43.2733 -80.2378 314° West 444 511 36,000  Level Cleveland Center
06:23PM 43.3539 -80.3600 312° West 446 513 36,000  Level Cleveland Center
06:24PM 43.3936 -80.5372 287° West 429 494 36,000  Level Cleveland Center
06:25PM 43.3753 -80.6967 261° West 421 484 36,000  Level Cleveland Center
06:26PM 43.3333 -80.8500 249° West 420 483 36,000  Level Toronto Center
06:27PM 43.3167 -81.0000 261° West 410 472 36,000  Level Toronto Center
06:28PM 43.3000 -81.1667 262° West 410 472 36,000  Level Toronto Center
06:29PM 43.2833 -81.3333 262° West 410 472 36,000  Level Toronto Center
06:30PM 43.2667 -81.4667 260° West 410 472 36,000  Level Toronto Center
06:31PM 43.2500 -81.6167 261° West 420 483 36,000  Level Toronto Center
06:32PM 43.2333 -81.7833 262° West 420 483 36,000  Level Toronto Center
06:33PM 43.2000 -81.9500 255° West 420 483 36,000  Level Toronto Center
06:34PM 43.1833 -82.1000 261° West 430 495 36,000  Level Toronto Center
06:35PM 43.1667 -82.2667 262° West 430 495 36,000  Level Toronto Center
06:36PM 43.1500 -82.4167 261° West 430 495 36,000 -180 Level Toronto Center
06:37PM 43.1333 -82.5833 262° West 430 495 35,700 -660 Descending Toronto Center
06:38PM 43.0833 -82.7333 246° West 430 495 34,700 -960 Descending Toronto Center
06:39PM 43.0667 -82.9000 262° West 430 495 33,800 -960 Descending Toronto Center
06:40PM 43.0500 -83.0833 263° West 430 495 32,800 -900 Descending Toronto Center
06:41PM 43.0167 -83.2167 251° West 430 495 32,000 -540 Descending Toronto Center
06:41PM 43.0328 -83.2969 285° West 437 503 32,000  Level Cleveland Center
06:42PM 43.0092 -83.4583 259° West 437 503 32,000  Level Cleveland Center
06:43PM 42.9800 -83.6517 258° West 438 504 32,000  Level Cleveland Center
06:44PM 42.9592 -83.8164 260° West 441 507 32,000  Level Cleveland Center
06:46PM 42.9439 -83.9806 263° West 441 507 32,000  Level Cleveland Center
06:47PM 42.9272 -84.1472 262° West 445 512 32,000  Level Cleveland Center
06:48PM 42.9108 -84.3125 262° West 444 511 32,000  Level Cleveland Center
06:48PM 42.8969 -84.4603 263° West 445 512 32,000  Level Chicago Center
06:49PM 42.8797 -84.6275 262° West 446 513 32,000  Level Chicago Center
06:50PM 42.8628 -84.7953 262° West 447 514 32,000  Level Chicago Center
06:51PM 42.8444 -84.9647 262° West 451 519 32,000  Level Chicago Center
06:53PM 42.8236 -85.1653 262° West 448 516 32,000  Level Chicago Center
06:54PM 42.8050 -85.3381 262° West 457 526 32,000  Level Chicago Center
06:55PM 42.7842 -85.5128 261° West 465 535 32,000 -1,260 Level Chicago Center
06:56PM 42.7519 -85.6858 256° West 468 539 29,400 -2,580 Descending Chicago Center
06:57PM 42.7214 -85.8561 256° West 464 534 26,700 -2,520 Descending Chicago Center
06:58PM 42.6922 -86.0186 256° West 446 513 24,200 -2,520 Descending Chicago Center
06:59PM 42.6642 -86.1736 256° West 425 489 21,600 -2,040 Descending Chicago Center
07:00PM 42.6292 -86.3489 255° West 396 456 20,000 -780 Descending Chicago Center
07:01PM 42.6039 -86.4947 257° West 397 457 20,000 -780 Level Chicago Center
07:02PM 42.5758 -86.6375 255° West 392 451 18,400 -1,920 Descending Chicago Center
07:03PM 42.5494 -86.7736 255° West 378 435 16,100 -2,280 Descending Chicago Center
07:04PM 42.5128 -86.9033 249° West 371 427 13,700 -2,340 Descending Chicago Center
07:05PM 42.4797 -87.0289 250° West 359 413 11,300 -1,680 Descending Chicago Center
07:06PM 42.4450 -87.1450 248° West 336 387 10,300 -1,140 Descending Chicago Center
07:07PM 42.4125 -87.2656 250° West 290 334 9,000 -660 Descending Chicago Center
07:08PM 42.3856 -87.3631 250° West 280 322 9,000  Level Chicago Center
07:09PM 42.3550 -87.4656 248° West 276 318 9,000 -420 Level Chicago Center
07:10PM 42.3103 -87.5492 234° Southwest 293 337 8,200 -840 Descending Chicago Center
07:11PM 42.2550 -87.6103 219° Southwest 259 298 7,300 -960 Descending Chicago Center
07:12PM 42.2072 -87.6644 220° Southwest 232 267 6,300 -1,200 Descending Chicago Center
07:13PM 42.1586 -87.7181 219° Southwest 194 223 4,900 -1,200 Descending Chicago Center
07:14PM 42.1219 -87.7581 219° Southwest 178 205 3,900 -1,080 Descending Chicago Center
07:15PM 42.1000 -87.7833 221° Southwest 163 188 3,300 -1,020 Descending Chicago TRACON
07:16PM 42.0667 -87.8167 217° Southwest 165 190 2,400 -900 Descending Chicago TRACON
07:17PM 42.0333 -87.8500 217° Southwest 151 174 1,600 -900 Descending Chicago TRACON
07:18PM 42.0000 -87.9000 228° Southwest 160 184 700 -840 Descending Chicago TRACON